sensor_id;sensor_type;location;lat;lon;timestamp;pressure;altitude;pressure_sealevel;temperature;humidity
81005;BME280;70472;47.592;17.640;2023-08-06T00:00:13;98474.63;;;17.27;94.44
81005;BME280;70472;47.592;17.640;2023-08-06T00:00:47;98478.41;;;17.26;94.70
81005;BME280;70472;47.592;17.640;2023-08-06T00:01:19;98479.69;;;17.23;94.92
81005;BME280;70472;47.592;17.640;2023-08-06T00:01:53;98471.31;;;17.25;95.78
81005;BME280;70472;47.592;17.640;2023-08-06T00:02:25;98471.00;;;17.21;94.83
81005;BME280;70472;47.592;17.640;2023-08-06T00:02:58;98478.88;;;17.23;95.48
81005;BME280;70472;47.592;17.640;2023-08-06T00:03:30;98482.66;;;17.22;95.88
81005;BME280;70472;47.592;17.640;2023-08-06T00:04:03;98473.97;;;17.20;95.12
81005;BME280;70472;47.592;17.640;2023-08-06T00:04:35;98482.34;;;17.18;95.74
81005;BME280;70472;47.592;17.640;2023-08-06T00:05:08;98475.63;;;17.21;94.93
81005;BME280;70472;47.592;17.640;2023-08-06T00:05:43;98487.28;;;17.21;95.21
81005;BME280;70472;47.592;17.640;2023-08-06T00:06:18;98490.25;;;17.20;94.96
81005;BME280;70472;47.592;17.640;2023-08-06T00:06:51;98490.78;;;17.22;95.77
81005;BME280;70472;47.592;17.640;2023-08-06T00:07:23;98482.94;;;17.20;95.19
81005;BME280;70472;47.592;17.640;2023-08-06T00:07:55;98492.19;;;17.24;95.31
81005;BME280;70472;47.592;17.640;2023-08-06T00:08:28;98495.66;;;17.20;95.05
81005;BME280;70472;47.592;17.640;2023-08-06T00:09:00;98508.13;;;17.21;95.74
81005;BME280;70472;47.592;17.640;2023-08-06T00:09:33;98504.00;;;17.18;96.05
81005;BME280;70472;47.592;17.640;2023-08-06T00:10:06;98502.94;;;17.19;95.95
81005;BME280;70472;47.592;17.640;2023-08-06T00:10:40;98499.41;;;17.19;94.98
81005;BME280;70472;47.592;17.640;2023-08-06T00:11:12;98497.28;;;17.21;95.88
81005;BME280;70472;47.592;17.640;2023-08-06T00:11:44;98510.03;;;17.20;96.00
81005;BME280;70472;47.592;17.640;2023-08-06T00:12:17;98500.31;;;17.24;95.32
81005;BME280;70472;47.592;17.640;2023-08-06T00:12:49;98512.78;;;17.25;95.62
81005;BME280;70472;47.592;17.640;2023-08-06T00:13:22;98508.88;;;17.16;95.66
81005;BME280;70472;47.592;17.640;2023-08-06T00:13:54;98513.78;;;17.19;95.50
81005;BME280;70472;47.592;17.640;2023-08-06T00:14:26;98515.66;;;17.19;95.11
81005;BME280;70472;47.592;17.640;2023-08-06T00:14:59;98525.50;;;17.25;94.92
81005;BME280;70472;47.592;17.640;2023-08-06T00:15:31;98522.56;;;17.26;94.76
81005;BME280;70472;47.592;17.640;2023-08-06T00:16:12;98522.06;;;17.29;95.42
81005;BME280;70472;47.592;17.640;2023-08-06T00:16:45;98524.47;;;17.26;94.82
81005;BME280;70472;47.592;17.640;2023-08-06T00:17:18;98527.31;;;17.19;95.94
81005;BME280;70472;47.592;17.640;2023-08-06T00:17:50;98525.22;;;17.04;96.49
81005;BME280;70472;47.592;17.640;2023-08-06T00:18:23;98528.75;;;17.05;95.66
81005;BME280;70472;47.592;17.640;2023-08-06T00:18:56;98529.66;;;17.11;96.42
81005;BME280;70472;47.592;17.640;2023-08-06T00:19:29;98528.09;;;17.15;95.88
81005;BME280;70472;47.592;17.640;2023-08-06T00:20:03;98535.88;;;17.11;96.33
81005;BME280;70472;47.592;17.640;2023-08-06T00:20:39;98533.91;;;17.06;96.80
81005;BME280;70472;47.592;17.640;2023-08-06T00:21:12;98530.56;;;16.99;96.84
81005;BME280;70472;47.592;17.640;2023-08-06T00:21:44;98523.25;;;17.00;96.97
81005;BME280;70472;47.592;17.640;2023-08-06T00:22:16;98526.13;;;17.10;96.46
81005;BME280;70472;47.592;17.640;2023-08-06T00:22:49;98527.03;;;17.16;96.37
81005;BME280;70472;47.592;17.640;2023-08-06T00:23:21;98523.25;;;17.17;95.99
81005;BME280;70472;47.592;17.640;2023-08-06T00:23:54;98526.22;;;17.15;95.27
81005;BME280;70472;47.592;17.640;2023-08-06T00:24:26;98522.69;;;17.15;95.41
81005;BME280;70472;47.592;17.640;2023-08-06T00:24:59;98529.56;;;17.05;95.59
81005;BME280;70472;47.592;17.640;2023-08-06T00:25:31;98526.38;;;17.08;95.97
81005;BME280;70472;47.592;17.640;2023-08-06T00:26:04;98535.88;;;17.11;97.10
81005;BME280;70472;47.592;17.640;2023-08-06T00:26:37;98530.72;;;17.09;95.89
81005;BME280;70472;47.592;17.640;2023-08-06T00:27:09;98537.69;;;17.05;95.95
81005;BME280;70472;47.592;17.640;2023-08-06T00:27:42;98535.88;;;17.11;96.75
81005;BME280;70472;47.592;17.640;2023-08-06T00:28:14;98537.13;;;17.03;96.51
81005;BME280;70472;47.592;17.640;2023-08-06T00:28:46;98538.03;;;17.09;95.42
81005;BME280;70472;47.592;17.640;2023-08-06T00:29:19;98541.06;;;17.13;96.50
81005;BME280;70472;47.592;17.640;2023-08-06T00:29:52;98533.44;;;17.09;95.90
81005;BME280;70472;47.592;17.640;2023-08-06T00:30:24;98541.06;;;17.13;96.60
81005;BME280;70472;47.592;17.640;2023-08-06T00:30:57;98542.47;;;17.15;95.87
81005;BME280;70472;47.592;17.640;2023-08-06T00:31:29;98545.44;;;17.14;95.44
81005;BME280;70472;47.592;17.640;2023-08-06T00:32:02;98547.06;;;17.15;94.89
81005;BME280;70472;47.592;17.640;2023-08-06T00:32:34;98543.28;;;17.16;95.56
81005;BME280;70472;47.592;17.640;2023-08-06T00:33:07;98540.06;;;17.19;95.05
81005;BME280;70472;47.592;17.640;2023-08-06T00:33:39;98547.28;;;17.13;95.05
81005;BME280;70472;47.592;17.640;2023-08-06T00:34:12;98544.34;;;17.15;95.97
81005;BME280;70472;47.592;17.640;2023-08-06T00:34:44;98546.81;;;17.16;95.66
81005;BME280;70472;47.592;17.640;2023-08-06T00:35:18;98545.25;;;17.20;95.39
81005;BME280;70472;47.592;17.640;2023-08-06T00:35:51;98545.00;;;17.22;95.95
81005;BME280;70472;47.592;17.640;2023-08-06T00:36:23;98544.50;;;17.25;95.22
81005;BME280;70472;47.592;17.640;2023-08-06T00:36:56;98540.66;;;17.21;96.14
81005;BME280;70472;47.592;17.640;2023-08-06T00:37:28;98539.31;;;17.23;96.00
81005;BME280;70472;47.592;17.640;2023-08-06T00:38:01;98542.84;;;17.24;95.03
81005;BME280;70472;47.592;17.640;2023-08-06T00:38:33;98539.84;;;17.20;94.99
81005;BME280;70472;47.592;17.640;2023-08-06T00:39:06;98533.91;;;17.23;95.07
81005;BME280;70472;47.592;17.640;2023-08-06T00:39:38;98535.53;;;17.24;95.78
81005;BME280;70472;47.592;17.640;2023-08-06T00:40:11;98538.16;;;17.19;94.88
81005;BME280;70472;47.592;17.640;2023-08-06T00:40:43;98537.13;;;17.20;95.75
81005;BME280;70472;47.592;17.640;2023-08-06T00:41:15;98542.38;;;17.10;96.19
81005;BME280;70472;47.592;17.640;2023-08-06T00:41:48;98534.00;;;17.12;96.32
81005;BME280;70472;47.592;17.640;2023-08-06T00:42:20;98534.06;;;17.17;96.49
81005;BME280;70472;47.592;17.640;2023-08-06T00:42:53;98535.72;;;17.18;96.13
81005;BME280;70472;47.592;17.640;2023-08-06T00:43:25;98528.19;;;17.20;95.79
81005;BME280;70472;47.592;17.640;2023-08-06T00:43:58;98527.66;;;17.23;95.28
81005;BME280;70472;47.592;17.640;2023-08-06T00:44:30;98528.47;;;17.23;95.64
81005;BME280;70472;47.592;17.640;2023-08-06T00:45:03;98526.34;;;17.25;95.77
81005;BME280;70472;47.592;17.640;2023-08-06T00:45:37;98528.22;;;17.25;95.29
81005;BME280;70472;47.592;17.640;2023-08-06T00:46:10;98526.03;;;17.22;95.57
81005;BME280;70472;47.592;17.640;2023-08-06T00:46:43;98527.66;;;17.23;95.46
81005;BME280;70472;47.592;17.640;2023-08-06T00:47:16;98527.66;;;17.23;95.74
81005;BME280;70472;47.592;17.640;2023-08-06T00:47:49;98525.78;;;17.23;95.42
81005;BME280;70472;47.592;17.640;2023-08-06T00:48:22;98523.88;;;17.24;94.46
81005;BME280;70472;47.592;17.640;2023-08-06T00:48:55;98528.22;;;17.25;94.51
81005;BME280;70472;47.592;17.640;2023-08-06T00:49:28;98532.00;;;17.24;95.54
81005;BME280;70472;47.592;17.640;2023-08-06T00:50:02;98524.56;;;17.14;94.83
81005;BME280;70472;47.592;17.640;2023-08-06T00:50:35;98527.50;;;17.13;95.95
81005;BME280;70472;47.592;17.640;2023-08-06T00:51:10;98530.28;;;17.18;94.87
81005;BME280;70472;47.592;17.640;2023-08-06T00:51:43;98523.31;;;17.22;96.00
81005;BME280;70472;47.592;17.640;2023-08-06T00:52:16;98532.28;;;17.22;95.34
81005;BME280;70472;47.592;17.640;2023-08-06T00:52:49;98530.38;;;17.23;94.86
81005;BME280;70472;47.592;17.640;2023-08-06T00:53:22;98530.00;;;17.14;95.63
81005;BME280;70472;47.592;17.640;2023-08-06T00:53:55;98535.16;;;17.16;95.31
81005;BME280;70472;47.592;17.640;2023-08-06T00:54:29;98525.94;;;17.17;95.37
81005;BME280;70472;47.592;17.640;2023-08-06T00:55:03;98535.72;;;17.18;95.64
81005;BME280;70472;47.592;17.640;2023-08-06T00:55:36;98523.56;;;17.20;95.42
81005;BME280;70472;47.592;17.640;2023-08-06T00:56:10;98535.53;;;17.24;95.87
81005;BME280;70472;47.592;17.640;2023-08-06T00:56:42;98526.34;;;17.25;94.97
81005;BME280;70472;47.592;17.640;2023-08-06T00:57:15;98529.63;;;17.27;95.78
81005;BME280;70472;47.592;17.640;2023-08-06T00:57:48;98533.16;;;17.28;94.90
81005;BME280;70472;47.592;17.640;2023-08-06T00:58:21;98532.00;;;17.24;95.41
81005;BME280;70472;47.592;17.640;2023-08-06T00:58:54;98528.66;;;17.17;95.77
81005;BME280;70472;47.592;17.640;2023-08-06T00:59:27;98536.53;;;17.18;95.26
81005;BME280;70472;47.592;17.640;2023-08-06T01:00:00;98526.22;;;17.15;95.04
81005;BME280;70472;47.592;17.640;2023-08-06T01:00:33;98538.16;;;17.19;95.64
81005;BME280;70472;47.592;17.640;2023-08-06T01:01:05;98535.22;;;17.21;95.38
81005;BME280;70472;47.592;17.640;2023-08-06T01:01:38;98526.28;;;17.20;95.96
81005;BME280;70472;47.592;17.640;2023-08-06T01:02:10;98528.66;;;17.17;94.26
81005;BME280;70472;47.592;17.640;2023-08-06T01:02:43;98528.41;;;17.18;95.46
81005;BME280;70472;47.592;17.640;2023-08-06T01:03:15;98527.03;;;17.16;94.66
81005;BME280;70472;47.592;17.640;2023-08-06T01:03:48;98524.06;;;17.17;95.33
81005;BME280;70472;47.592;17.640;2023-08-06T01:04:23;98528.66;;;17.17;95.86
81005;BME280;70472;47.592;17.640;2023-08-06T01:04:56;98528.84;;;17.10;95.31
81005;BME280;70472;47.592;17.640;2023-08-06T01:05:28;98525.88;;;17.12;95.48
81005;BME280;70472;47.592;17.640;2023-08-06T01:06:01;98525.31;;;17.09;95.98
81005;BME280;70472;47.592;17.640;2023-08-06T01:08:12;98516.66;;;17.13;94.78
81005;BME280;70472;47.592;17.640;2023-08-06T01:09:04;98521.53;;;17.11;95.73
81005;BME280;70472;47.592;17.640;2023-08-06T01:14:28;98512.75;;;17.03;95.55
81005;BME280;70472;47.592;17.640;2023-08-06T01:15:19;98509.44;;;17.01;95.20
81005;BME280;70472;47.592;17.640;2023-08-06T01:15:59;98511.13;;;17.02;95.80
81005;BME280;70472;47.592;17.640;2023-08-06T01:16:34;98513.56;;;17.04;95.52
81005;BME280;70472;47.592;17.640;2023-08-06T01:17:08;98510.13;;;17.08;95.22
81005;BME280;70472;47.592;17.640;2023-08-06T01:17:42;98508.41;;;17.02;94.63
81005;BME280;70472;47.592;17.640;2023-08-06T01:18:16;98510.34;;;17.07;95.59
81005;BME280;70472;47.592;17.640;2023-08-06T01:18:48;98505.19;;;17.05;95.44
81005;BME280;70472;47.592;17.640;2023-08-06T01:19:21;98513.22;;;17.00;95.37
81005;BME280;70472;47.592;17.640;2023-08-06T01:19:54;98503.00;;;17.02;95.62
81005;BME280;70472;47.592;17.640;2023-08-06T01:20:31;98504.63;;;17.03;94.73
81005;BME280;70472;47.592;17.640;2023-08-06T01:21:03;98503.28;;;17.06;94.68
81005;BME280;70472;47.592;17.640;2023-08-06T01:21:36;98499.78;;;17.05;95.31
81005;BME280;70472;47.592;17.640;2023-08-06T01:22:08;98503.03;;;17.07;94.18
81005;BME280;70472;47.592;17.640;2023-08-06T01:22:41;98499.59;;;16.95;94.70
81005;BME280;70472;47.592;17.640;2023-08-06T01:23:13;98500.19;;;16.97;95.73
81005;BME280;70472;47.592;17.640;2023-08-06T01:23:47;98496.50;;;17.03;95.91
81005;BME280;70472;47.592;17.640;2023-08-06T01:24:20;98495.41;;;17.04;95.96
81005;BME280;70472;47.592;17.640;2023-08-06T01:24:54;98498.13;;;17.04;94.99
81005;BME280;70472;47.592;17.640;2023-08-06T01:25:34;98495.34;;;16.99;94.32
81005;BME280;70472;47.592;17.640;2023-08-06T01:27:11;98489.50;;;17.07;94.67
81005;BME280;70472;47.592;17.640;2023-08-06T01:27:49;98486.31;;;17.11;94.41
81005;BME280;70472;47.592;17.640;2023-08-06T01:30:30;98484.84;;;17.03;95.55
81005;BME280;70472;47.592;17.640;2023-08-06T01:31:07;98483.69;;;16.99;94.94
81005;BME280;70472;47.592;17.640;2023-08-06T01:31:44;98481.78;;;16.99;94.51
81005;BME280;70472;47.592;17.640;2023-08-06T01:32:18;98481.06;;;17.04;94.93
81005;BME280;70472;47.592;17.640;2023-08-06T01:32:59;98479.72;;;17.06;95.31
81005;BME280;70472;47.592;17.640;2023-08-06T01:33:34;98482.44;;;17.06;94.90
81005;BME280;70472;47.592;17.640;2023-08-06T01:34:23;98479.25;;;17.09;95.04
81005;BME280;70472;47.592;17.640;2023-08-06T01:34:57;98479.72;;;17.06;95.04
81005;BME280;70472;47.592;17.640;2023-08-06T01:35:32;98471.38;;;17.08;95.04
81005;BME280;70472;47.592;17.640;2023-08-06T01:36:06;98477.28;;;17.05;95.64
81005;BME280;70472;47.592;17.640;2023-08-06T01:36:40;98478.91;;;17.06;94.68
81005;BME280;70472;47.592;17.640;2023-08-06T01:37:13;98475.94;;;17.07;95.66
81005;BME280;70472;47.592;17.640;2023-08-06T01:37:47;98474.91;;;17.08;95.32
81005;BME280;70472;47.592;17.640;2023-08-06T01:38:20;98481.38;;;17.07;95.25
81005;BME280;70472;47.592;17.640;2023-08-06T01:38:53;98485.66;;;17.03;95.33
81005;BME280;70472;47.592;17.640;2023-08-06T01:39:26;98483.50;;;17.05;95.37
81005;BME280;70472;47.592;17.640;2023-08-06T01:39:58;98488.94;;;17.05;95.09
81005;BME280;70472;47.592;17.640;2023-08-06T01:40:30;98479.97;;;17.05;94.78
81005;BME280;70472;47.592;17.640;2023-08-06T01:41:03;98474.50;;;17.00;94.29
81005;BME280;70472;47.592;17.640;2023-08-06T01:41:35;98479.09;;;16.99;94.71
81005;BME280;70472;47.592;17.640;2023-08-06T01:42:08;98483.34;;;16.95;94.82
81005;BME280;70472;47.592;17.640;2023-08-06T01:42:41;98481.22;;;16.97;94.88
81005;BME280;70472;47.592;17.640;2023-08-06T01:43:13;98478.09;;;16.89;94.89
81005;BME280;70472;47.592;17.640;2023-08-06T01:43:46;98482.44;;;16.90;94.26
81005;BME280;70472;47.592;17.640;2023-08-06T01:44:18;98485.50;;;16.93;94.82
81005;BME280;70472;47.592;17.640;2023-08-06T01:44:51;98481.22;;;16.97;94.94
81005;BME280;70472;47.592;17.640;2023-08-06T01:45:23;98484.25;;;17.01;94.98
81005;BME280;70472;47.592;17.640;2023-08-06T01:45:56;98479.91;;;17.00;94.58
81005;BME280;70472;47.592;17.640;2023-08-06T01:46:29;98479.09;;;16.99;94.48
81005;BME280;70472;47.592;17.640;2023-08-06T01:47:01;98480.16;;;16.98;94.33
81005;BME280;70472;47.592;17.640;2023-08-06T01:47:34;98478.53;;;16.97;94.56
81005;BME280;70472;47.592;17.640;2023-08-06T01:48:06;98476.06;;;16.96;95.44
81005;BME280;70472;47.592;17.640;2023-08-06T01:48:39;98475.47;;;16.94;93.83
81005;BME280;70472;47.592;17.640;2023-08-06T01:49:11;98474.19;;;16.96;94.28
81005;BME280;70472;47.592;17.640;2023-08-06T01:49:43;98472.84;;;16.99;94.17
81005;BME280;70472;47.592;17.640;2023-08-06T01:50:16;98479.09;;;16.99;94.54
81005;BME280;70472;47.592;17.640;2023-08-06T01:50:49;98475.31;;;17.00;95.07
81005;BME280;70472;47.592;17.640;2023-08-06T01:51:23;98477.44;;;16.98;94.13
81005;BME280;70472;47.592;17.640;2023-08-06T01:51:55;98475.00;;;16.97;94.12
81005;BME280;70472;47.592;17.640;2023-08-06T01:52:28;98479.00;;;16.94;93.61
81005;BME280;70472;47.592;17.640;2023-08-06T01:53:01;98472.22;;;16.92;94.26
81005;BME280;70472;47.592;17.640;2023-08-06T01:53:34;98474.56;;;16.88;95.92
81005;BME280;70472;47.592;17.640;2023-08-06T01:54:06;98477.28;;;16.88;95.13
81005;BME280;70472;47.592;17.640;2023-08-06T01:54:38;98482.63;;;16.83;95.37
81005;BME280;70472;47.592;17.640;2023-08-06T01:55:11;98476.72;;;16.86;95.04
81005;BME280;70472;47.592;17.640;2023-08-06T01:55:48;98470.78;;;16.89;95.79
81005;BME280;70472;47.592;17.640;2023-08-06T01:56:21;98476.56;;;16.93;95.15
81005;BME280;70472;47.592;17.640;2023-08-06T01:56:53;98473.38;;;16.96;95.64
81005;BME280;70472;47.592;17.640;2023-08-06T01:57:26;98474.66;;;16.93;95.40
81005;BME280;70472;47.592;17.640;2023-08-06T01:57:58;98477.38;;;16.93;95.71
81005;BME280;70472;47.592;17.640;2023-08-06T01:58:31;98474.19;;;16.96;94.65
81005;BME280;70472;47.592;17.640;2023-08-06T01:59:04;98472.03;;;16.98;95.08
81005;BME280;70472;47.592;17.640;2023-08-06T01:59:36;98475.81;;;16.97;94.45
81005;BME280;70472;47.592;17.640;2023-08-06T02:00:09;98470.41;;;16.97;94.50
81005;BME280;70472;47.592;17.640;2023-08-06T02:00:44;98476.06;;;16.96;94.40
81005;BME280;70472;47.592;17.640;2023-08-06T02:01:17;98463.34;;;16.96;95.27
81005;BME280;70472;47.592;17.640;2023-08-06T02:01:49;98470.56;;;16.91;93.97
81005;BME280;70472;47.592;17.640;2023-08-06T02:02:22;98470.56;;;16.91;94.50
81005;BME280;70472;47.592;17.640;2023-08-06T02:02:55;98471.88;;;16.88;95.46
81005;BME280;70472;47.592;17.640;2023-08-06T02:03:29;98474.09;;;16.91;95.05
81005;BME280;70472;47.592;17.640;2023-08-06T02:04:02;98465.38;;;16.89;95.09
81005;BME280;70472;47.592;17.640;2023-08-06T02:04:34;98467.28;;;16.89;94.45
81005;BME280;70472;47.592;17.640;2023-08-06T02:05:07;98460.78;;;16.90;93.92
81005;BME280;70472;47.592;17.640;2023-08-06T02:05:40;98467.78;;;16.86;93.78
81005;BME280;70472;47.592;17.640;2023-08-06T02:06:13;98462.13;;;16.87;94.47
81005;BME280;70472;47.592;17.640;2023-08-06T02:06:45;98469.97;;;16.89;94.76
81005;BME280;70472;47.592;17.640;2023-08-06T02:07:18;98466.78;;;16.92;95.33
81005;BME280;70472;47.592;17.640;2023-08-06T02:07:50;98465.97;;;16.91;94.48
81005;BME280;70472;47.592;17.640;2023-08-06T02:08:23;98469.25;;;16.93;95.08
81005;BME280;70472;47.592;17.640;2023-08-06T02:08:55;98462.75;;;16.94;94.30
81005;BME280;70472;47.592;17.640;2023-08-06T02:09:27;98463.81;;;16.93;95.60
81005;BME280;70472;47.592;17.640;2023-08-06T02:10:01;98463.00;;;16.93;94.56
81005;BME280;70472;47.592;17.640;2023-08-06T02:10:34;98473.84;;;16.93;95.31
81005;BME280;70472;47.592;17.640;2023-08-06T02:11:06;98467.09;;;16.95;95.38
81005;BME280;70472;47.592;17.640;2023-08-06T02:11:39;98464.34;;;16.90;95.19
81005;BME280;70472;47.592;17.640;2023-08-06T02:12:11;98466.53;;;16.93;94.71
81005;BME280;70472;47.592;17.640;2023-08-06T02:12:44;98471.94;;;16.93;95.46
81005;BME280;70472;47.592;17.640;2023-08-06T02:13:17;98468.16;;;16.94;94.50
81005;BME280;70472;47.592;17.640;2023-08-06T02:13:49;98457.94;;;16.96;95.28
81005;BME280;70472;47.592;17.640;2023-08-06T02:14:23;98469.81;;;16.95;94.91
81005;BME280;70472;47.592;17.640;2023-08-06T02:14:55;98469.75;;;16.90;95.11
81005;BME280;70472;47.592;17.640;2023-08-06T02:15:28;98459.75;;;16.91;95.00
81005;BME280;70472;47.592;17.640;2023-08-06T02:16:00;98472.50;;;16.95;95.27
81005;BME280;70472;47.592;17.640;2023-08-06T02:16:33;98469.59;;;16.97;94.92
81005;BME280;70472;47.592;17.640;2023-08-06T02:17:07;98470.41;;;16.97;94.76
81005;BME280;70472;47.592;17.640;2023-08-06T02:17:39;98471.94;;;16.93;94.70
81005;BME280;70472;47.592;17.640;2023-08-06T02:18:11;98468.44;;;16.93;95.14
81005;BME280;70472;47.592;17.640;2023-08-06T02:18:44;98466.88;;;16.97;95.87
81005;BME280;70472;47.592;17.640;2023-08-06T02:19:16;98461.63;;;16.90;95.40
81005;BME280;70472;47.592;17.640;2023-08-06T02:19:49;98460.22;;;16.88;95.36
81005;BME280;70472;47.592;17.640;2023-08-06T02:20:22;98461.13;;;16.93;95.81
81005;BME280;70472;47.592;17.640;2023-08-06T02:20:58;98458.75;;;16.97;96.00
81005;BME280;70472;47.592;17.640;2023-08-06T02:21:31;98459.56;;;16.97;94.94
81005;BME280;70472;47.592;17.640;2023-08-06T02:22:03;98461.19;;;16.98;95.71
81005;BME280;70472;47.592;17.640;2023-08-06T02:22:36;98461.75;;;17.00;95.34
81005;BME280;70472;47.592;17.640;2023-08-06T02:23:09;98459.22;;;16.94;95.03
81005;BME280;70472;47.592;17.640;2023-08-06T02:23:42;98465.72;;;16.93;94.72
81005;BME280;70472;47.592;17.640;2023-08-06T02:24:14;98464.16;;;16.97;95.17
81005;BME280;70472;47.592;17.640;2023-08-06T02:24:49;98462.75;;;16.94;94.93
81005;BME280;70472;47.592;17.640;2023-08-06T02:25:22;98464.16;;;16.97;94.43
81005;BME280;70472;47.592;17.640;2023-08-06T02:26:01;98460.13;;;16.99;94.08
81005;BME280;70472;47.592;17.640;2023-08-06T02:26:34;98457.94;;;16.96;94.04
81005;BME280;70472;47.592;17.640;2023-08-06T02:27:06;98463.34;;;16.96;94.31
81005;BME280;70472;47.592;17.640;2023-08-06T02:27:39;98464.34;;;16.90;94.38
81005;BME280;70472;47.592;17.640;2023-08-06T02:28:11;98457.34;;;16.94;94.13
81005;BME280;70472;47.592;17.640;2023-08-06T02:28:44;98460.56;;;16.91;94.84
81005;BME280;70472;47.592;17.640;2023-08-06T02:29:19;98458.06;;;16.90;93.70
81005;BME280;70472;47.592;17.640;2023-08-06T02:29:51;98460.56;;;16.91;94.87
81005;BME280;70472;47.592;17.640;2023-08-06T02:30:24;98453.00;;;16.93;95.34
81005;BME280;70472;47.592;17.640;2023-08-06T02:30:56;98456.13;;;16.85;95.24
81005;BME280;70472;47.592;17.640;2023-08-06T02:31:29;98452.34;;;16.86;95.69
81005;BME280;70472;47.592;17.640;2023-08-06T02:32:03;98448.09;;;16.90;95.79
81005;BME280;70472;47.592;17.640;2023-08-06T02:32:35;98451.84;;;16.89;95.58
81005;BME280;70472;47.592;17.640;2023-08-06T02:33:07;98450.19;;;16.88;95.10
81005;BME280;70472;47.592;17.640;2023-08-06T02:33:40;98449.72;;;16.91;95.87
81005;BME280;70472;47.592;17.640;2023-08-06T02:34:12;98443.16;;;16.87;94.14
81005;BME280;70472;47.592;17.640;2023-08-06T02:34:45;98443.72;;;16.89;95.07
81005;BME280;70472;47.592;17.640;2023-08-06T02:35:18;98436.19;;;16.91;95.21
81005;BME280;70472;47.592;17.640;2023-08-06T02:35:51;98438.72;;;16.81;95.66
81005;BME280;70472;47.592;17.640;2023-08-06T02:36:23;98442.16;;;16.76;95.56
81005;BME280;70472;47.592;17.640;2023-08-06T02:36:55;98437.56;;;16.77;95.79
81005;BME280;70472;47.592;17.640;2023-08-06T02:37:28;98436.50;;;16.78;95.50
81005;BME280;70472;47.592;17.640;2023-08-06T02:38:00;98432.25;;;16.82;95.45
81005;BME280;70472;47.592;17.640;2023-08-06T02:38:33;98431.69;;;16.80;94.85
81005;BME280;70472;47.592;17.640;2023-08-06T02:39:05;98427.34;;;16.79;94.43
81005;BME280;70472;47.592;17.640;2023-08-06T02:39:38;98427.41;;;16.84;94.76
81005;BME280;70472;47.592;17.640;2023-08-06T02:40:11;98426.00;;;16.81;94.94
81005;BME280;70472;47.592;17.640;2023-08-06T02:40:46;98424.84;;;16.77;95.68
81005;BME280;70472;47.592;17.640;2023-08-06T02:41:19;98425.09;;;16.76;95.92
81005;BME280;70472;47.592;17.640;2023-08-06T02:41:52;98429.22;;;16.78;95.68
81005;BME280;70472;47.592;17.640;2023-08-06T02:42:24;98424.63;;;16.79;95.76
81005;BME280;70472;47.592;17.640;2023-08-06T02:42:57;98418.06;;;16.75;95.44
81005;BME280;70472;47.592;17.640;2023-08-06T02:43:29;98421.31;;;16.77;95.85
81005;BME280;70472;47.592;17.640;2023-08-06T02:44:02;98417.81;;;16.76;95.83
81005;BME280;70472;47.592;17.640;2023-08-06T02:44:35;98415.25;;;16.70;95.50
81005;BME280;70472;47.592;17.640;2023-08-06T02:45:09;98422.09;;;16.72;94.48
81005;BME280;70472;47.592;17.640;2023-08-06T02:45:42;98415.09;;;16.76;94.82
81005;BME280;70472;47.592;17.640;2023-08-06T02:46:15;98409.38;;;16.73;94.79
81005;BME280;70472;47.592;17.640;2023-08-06T02:46:47;98415.16;;;16.65;95.63
81005;BME280;70472;47.592;17.640;2023-08-06T02:47:20;98409.59;;;16.71;96.04
81005;BME280;70472;47.592;17.640;2023-08-06T02:47:52;98414.94;;;16.66;96.35
81005;BME280;70472;47.592;17.640;2023-08-06T02:48:25;98409.00;;;16.69;96.49
81005;BME280;70472;47.592;17.640;2023-08-06T02:48:58;98410.41;;;16.72;96.33
81005;BME280;70472;47.592;17.640;2023-08-06T02:49:30;98403.84;;;16.68;95.61
81005;BME280;70472;47.592;17.640;2023-08-06T02:50:02;98404.41;;;16.70;95.00
81005;BME280;70472;47.592;17.640;2023-08-06T02:50:42;98405.47;;;16.69;95.21
81005;BME280;70472;47.592;17.640;2023-08-06T02:51:14;98405.97;;;16.66;95.33
81005;BME280;70472;47.592;17.640;2023-08-06T02:51:47;98408.44;;;16.67;95.06
81005;BME280;70472;47.592;17.640;2023-08-06T02:52:19;98404.41;;;16.70;96.03
81005;BME280;70472;47.592;17.640;2023-08-06T02:52:52;98410.41;;;16.72;96.01
81005;BME280;70472;47.592;17.640;2023-08-06T02:53:24;98408.84;;;16.59;94.32
81005;BME280;70472;47.592;17.640;2023-08-06T02:53:57;98404.25;;;16.60;95.44
81005;BME280;70472;47.592;17.640;2023-08-06T02:54:30;98417.72;;;16.54;94.85
81005;BME280;70472;47.592;17.640;2023-08-06T02:55:02;98409.66;;;16.60;94.89
81005;BME280;70472;47.592;17.640;2023-08-06T02:55:36;98402.88;;;16.57;95.34
81005;BME280;70472;47.592;17.640;2023-08-06T02:56:16;98406.72;;;16.61;95.71
81005;BME280;70472;47.592;17.640;2023-08-06T02:57:00;98405.91;;;16.61;95.51
81005;BME280;70472;47.592;17.640;2023-08-06T02:57:35;98402.13;;;16.62;96.57
81005;BME280;70472;47.592;17.640;2023-08-06T02:58:08;98409.19;;;16.63;95.88
81005;BME280;70472;47.592;17.640;2023-08-06T02:58:44;98411.06;;;16.62;95.43
81005;BME280;70472;47.592;17.640;2023-08-06T02:59:31;98404.75;;;16.56;95.71
81005;BME280;70472;47.592;17.640;2023-08-06T03:00:17;98413.44;;;16.59;96.16
81005;BME280;70472;47.592;17.640;2023-08-06T03:01:03;98411.00;;;16.57;95.69
81005;BME280;70472;47.592;17.640;2023-08-06T03:01:42;98414.84;;;16.44;94.94
81005;BME280;70472;47.592;17.640;2023-08-06T03:02:22;98409.44;;;16.44;95.28
81005;BME280;70472;47.592;17.640;2023-08-06T03:03:03;98412.97;;;16.45;95.23
81005;BME280;70472;47.592;17.640;2023-08-06T03:03:46;98417.56;;;16.44;96.05
81005;BME280;70472;47.592;17.640;2023-08-06T03:04:25;98413.69;;;16.40;96.35
81005;BME280;70472;47.592;17.640;2023-08-06T03:04:57;98420.75;;;16.41;96.01